Time;durP1;ratioP1;P1;durP2;ratioP2;P2;SDS_P1;SDS_P2;PMS_P1;PMS_P2;Temp;Humidity;BMP_temperature;BMP_pressure;BME280_temperature;BME280_humidity;BME280_pressure;Samples;Min_cycle;Max_cycle;Signal;HPM_P1;HPM_P2
2024/02/08 00:00:58;;;;;;;10.97;7.90;;;4.90;99.90;;;;;;811335;176;26475;-81
2024/02/08 00:03:24;;;;;;;15.20;9.27;;;4.90;99.90;;;;;;808515;176;26445;-81
2024/02/08 00:05:51;;;;;;;13.50;7.73;;;4.90;99.90;;;;;;805611;177;26434;-82
2024/02/08 00:08:17;;;;;;;13.20;7.77;;;4.90;99.90;;;;;;808051;175;26437;-82
2024/02/08 00:10:44;;;;;;;11.70;7.57;;;4.90;99.90;;;;;;803792;177;26425;-82
2024/02/08 00:13:13;;;;;;;11.23;7.93;;;4.90;99.90;;;;;;808523;177;26428;-82
2024/02/08 00:15:37;;;;;;;11.57;8.03;;;4.90;99.90;;;;;;800203;177;26405;-82
2024/02/08 00:18:04;;;;;;;10.33;7.37;;;4.90;99.90;;;;;;802203;177;26457;-82
2024/02/08 00:20:31;;;;;;;14.27;8.00;;;5.00;99.90;;;;;;803349;178;26426;-82
2024/02/08 00:22:57;;;;;;;15.03;7.70;;;4.90;99.90;;;;;;803699;175;26436;-82
2024/02/08 00:25:24;;;;;;;10.77;6.83;;;5.00;99.90;;;;;;804680;176;26473;-80
2024/02/08 00:27:52;;;;;;;10.20;6.80;;;5.00;99.90;;;;;;808522;177;26450;-82
2024/02/08 00:30:17;;;;;;;9.97;6.33;;;4.90;99.90;;;;;;802378;176;26447;-82
2024/02/08 00:32:48;;;;;;;10.33;7.10;;;4.90;99.90;;;;;;806525;177;26441;-84
2024/02/08 00:35:17;;;;;;;9.87;7.43;;;4.90;99.90;;;;;;805474;177;26428;-82
2024/02/08 00:37:40;;;;;;;8.50;6.43;;;4.90;99.90;;;;;;811641;174;26449;-77
2024/02/08 00:40:08;;;;;;;9.73;5.90;;;4.90;99.90;;;;;;804552;177;26466;-77
2024/02/08 00:42:34;;;;;;;10.67;6.97;;;4.80;99.90;;;;;;815326;174;26974;-77
2024/02/08 00:45:02;;;;;;;11.63;7.27;;;4.90;99.90;;;;;;819926;174;26431;-76
2024/02/08 00:47:28;;;;;;;8.50;6.00;;;5.00;99.90;;;;;;808090;174;26405;-76
2024/02/08 00:49:54;;;;;;;10.20;6.43;;;4.90;99.90;;;;;;809565;174;26406;-77
2024/02/08 00:52:20;;;;;;;10.10;6.70;;;4.90;99.90;;;;;;804899;178;26402;-76
2024/02/08 00:54:50;;;;;;;9.67;6.37;;;4.90;99.90;;;;;;809695;175;26492;-78
2024/02/08 00:57:14;;;;;;;8.27;5.50;;;4.90;99.90;;;;;;808951;175;26404;-75
2024/02/08 00:59:40;;;;;;;7.67;5.33;;;4.90;99.90;;;;;;810708;176;26405;-77
2024/02/08 01:02:07;;;;;;;6.90;4.60;;;4.90;99.90;;;;;;814975;176;26397;-77
2024/02/08 01:04:33;;;;;;;7.00;5.30;;;4.90;99.90;;;;;;816242;173;26435;-76
2024/02/08 01:07:00;;;;;;;8.10;5.10;;;4.90;99.90;;;;;;822004;172;26981;-77
2024/02/08 01:09:27;;;;;;;11.20;6.47;;;4.90;99.90;;;;;;819060;173;26405;-76
2024/02/08 01:11:53;;;;;;;7.87;5.37;;;4.80;99.90;;;;;;819731;173;26400;-76
2024/02/08 01:14:21;;;;;;;7.07;5.40;;;4.80;99.90;;;;;;823002;173;26435;-77
2024/02/08 01:16:50;;;;;;;9.70;5.13;;;4.90;99.90;;;;;;807492;173;26429;-78
2024/02/08 01:19:23;;;;;;;9.63;5.60;;;4.80;99.90;;;;;;813901;171;26372;-75
2024/02/08 01:21:50;;;;;;;8.97;6.03;;;4.80;99.90;;;;;;821255;173;26402;-76
2024/02/08 01:24:18;;;;;;;7.10;5.30;;;4.80;99.90;;;;;;823781;174;26420;-77
2024/02/08 01:26:43;;;;;;;9.17;4.40;;;4.80;99.90;;;;;;824148;170;26432;-77
2024/02/08 01:29:10;;;;;;;7.87;5.27;;;4.80;99.90;;;;;;817417;172;26417;-77
2024/02/08 01:31:37;;;;;;;8.93;5.83;;;4.80;99.90;;;;;;816770;173;27634;-77
2024/02/08 01:34:05;;;;;;;7.97;4.97;;;4.80;99.90;;;;;;811213;173;26424;-76
2024/02/08 01:36:30;;;;;;;9.00;5.07;;;4.80;99.90;;;;;;818467;173;26483;-77
2024/02/08 01:38:58;;;;;;;7.60;5.30;;;4.80;99.90;;;;;;810223;172;27017;-77
2024/02/08 01:41:23;;;;;;;11.67;5.87;;;4.80;99.90;;;;;;813277;173;26446;-78
2024/02/08 01:43:50;;;;;;;9.50;5.77;;;4.80;99.90;;;;;;815329;173;26477;-76
2024/02/08 01:46:16;;;;;;;9.50;6.40;;;4.80;99.90;;;;;;824254;173;26421;-77
2024/02/08 01:48:44;;;;;;;12.00;8.10;;;4.80;99.90;;;;;;819094;173;26441;-77
2024/02/08 01:51:12;;;;;;;8.83;6.23;;;4.80;99.90;;;;;;809749;174;26417;-77
2024/02/08 01:53:37;;;;;;;8.60;6.17;;;4.90;99.90;;;;;;806559;173;26378;-78
2024/02/08 01:56:05;;;;;;;7.23;5.80;;;4.90;99.90;;;;;;808007;170;26414;-78
2024/02/08 01:58:30;;;;;;;7.77;6.00;;;4.90;99.90;;;;;;807827;173;26576;-77
2024/02/08 02:00:57;;;;;;;8.13;6.07;;;4.90;99.90;;;;;;815229;173;26432;-77
2024/02/08 02:03:23;;;;;;;9.77;6.20;;;4.80;99.90;;;;;;816750;171;26427;-77
2024/02/08 02:05:50;;;;;;;9.20;6.83;;;4.80;99.90;;;;;;820548;172;26441;-78
2024/02/08 02:08:17;;;;;;;12.57;7.87;;;4.80;99.90;;;;;;813460;170;26431;-77
2024/02/08 02:10:44;;;;;;;12.17;8.47;;;4.80;99.90;;;;;;807935;175;26955;-78
2024/02/08 02:13:11;;;;;;;14.63;9.23;;;4.90;99.90;;;;;;812506;174;26423;-77
2024/02/08 02:15:37;;;;;;;16.47;10.00;;;4.90;99.90;;;;;;809942;173;26395;-77
2024/02/08 02:18:07;;;;;;;13.83;8.33;;;4.90;99.90;;;;;;808771;174;26439;-77
2024/02/08 02:20:31;;;;;;;13.03;9.30;;;4.90;99.90;;;;;;813456;173;26417;-77
2024/02/08 02:22:58;;;;;;;12.40;9.47;;;4.90;99.90;;;;;;813897;174;26410;-77
2024/02/08 02:25:25;;;;;;;13.00;9.40;;;4.90;99.90;;;;;;816254;173;26404;-77
2024/02/08 02:27:53;;;;;;;15.40;8.97;;;4.90;99.90;;;;;;813771;173;26414;-78
2024/02/08 02:30:17;;;;;;;12.20;8.93;;;4.90;99.90;;;;;;813717;173;26408;-77
2024/02/08 02:32:44;;;;;;;16.73;9.87;;;4.90;99.90;;;;;;812012;174;26410;-75
2024/02/08 02:35:10;;;;;;;14.47;9.40;;;4.90;99.90;;;;;;811794;176;26968;-80
2024/02/08 02:37:37;;;;;;;13.73;9.67;;;4.90;99.90;;;;;;812222;176;26437;-77
2024/02/08 02:40:06;;;;;;;14.57;10.63;;;4.90;99.90;;;;;;810109;172;26998;-76
2024/02/08 02:42:31;;;;;;;14.60;10.17;;;4.90;99.90;;;;;;810946;173;26395;-76
2024/02/08 02:45:00;;;;;;;19.23;11.23;;;4.90;99.90;;;;;;810473;173;26398;-78
2024/02/08 02:47:25;;;;;;;15.67;11.10;;;4.90;99.90;;;;;;811738;174;26481;-77
2024/02/08 02:49:54;;;;;;;16.87;11.20;;;4.90;99.90;;;;;;809873;176;26562;-77
2024/02/08 02:52:17;;;;;;;21.27;12.77;;;4.90;99.90;;;;;;808634;176;27047;-77
2024/02/08 02:54:44;;;;;;;21.87;12.90;;;4.90;99.90;;;;;;804856;176;26421;-75
2024/02/08 02:57:11;;;;;;;19.50;12.47;;;4.90;99.90;;;;;;808723;176;26423;-76
2024/02/08 02:59:37;;;;;;;24.93;14.03;;;4.90;99.90;;;;;;806008;176;26422;-76
2024/02/08 03:02:04;;;;;;;19.87;12.87;;;4.90;99.90;;;;;;801130;178;27036;-77
2024/02/08 03:04:30;;;;;;;20.63;13.13;;;5.00;99.90;;;;;;801848;178;26532;-77
2024/02/08 03:06:57;;;;;;;19.03;11.57;;;4.90;99.90;;;;;;802916;178;26517;-76
2024/02/08 03:09:27;;;;;;;19.63;14.03;;;4.90;99.90;;;;;;807537;175;26432;-77
2024/02/08 03:11:50;;;;;;;20.80;13.20;;;4.90;99.90;;;;;;805264;177;26411;-76
2024/02/08 03:14:19;;;;;;;19.57;12.90;;;4.90;99.90;;;;;;803171;178;26408;-76
2024/02/08 03:16:45;;;;;;;19.67;11.53;;;4.90;99.90;;;;;;808823;173;26419;-76
2024/02/08 03:19:11;;;;;;;21.73;13.67;;;4.90;99.90;;;;;;810590;174;26941;-77
2024/02/08 03:21:40;;;;;;;24.30;13.70;;;4.90;99.90;;;;;;810260;175;26414;-77
2024/02/08 03:24:11;;;;;;;21.07;13.57;;;4.90;99.90;;;;;;803111;178;26964;-77
2024/02/08 03:26:43;;;;;;;24.23;14.17;;;4.80;99.90;;;;;;816832;174;26425;-77
2024/02/08 03:29:11;;;;;;;25.67;13.03;;;4.80;99.90;;;;;;808851;175;26991;-76
2024/02/08 03:31:45;;;;;;;18.57;13.13;;;4.80;99.90;;;;;;812564;174;26409;-77
2024/02/08 03:34:09;;;;;;;20.80;13.60;;;4.80;99.90;;;;;;814046;175;26458;-77
2024/02/08 03:36:36;;;;;;;24.30;14.10;;;4.90;99.90;;;;;;816916;175;26426;-76
2024/02/08 03:39:03;;;;;;;27.63;15.80;;;4.80;99.90;;;;;;817995;175;26427;-76
2024/02/08 03:41:29;;;;;;;19.67;12.87;;;4.80;99.90;;;;;;806338;174;26409;-77
2024/02/08 03:43:57;;;;;;;20.67;13.03;;;4.80;99.90;;;;;;806806;177;26414;-77
2024/02/08 03:46:24;;;;;;;17.03;11.50;;;4.80;99.90;;;;;;794194;177;26455;-77
2024/02/08 03:48:49;;;;;;;15.40;10.67;;;4.90;99.90;;;;;;789865;177;26446;-77
2024/02/08 03:51:17;;;;;;;17.07;11.10;;;4.80;99.90;;;;;;790186;177;26462;-77
2024/02/08 03:53:43;;;;;;;19.37;12.50;;;4.80;99.90;;;;;;793615;177;26516;-77
2024/02/08 03:56:11;;;;;;;20.47;13.10;;;4.80;99.90;;;;;;795848;177;26440;-78
2024/02/08 03:58:37;;;;;;;24.70;14.37;;;4.80;99.90;;;;;;794623;177;27016;-77
2024/02/08 04:01:04;;;;;;;20.27;12.93;;;4.90;99.90;;;;;;799669;177;26435;-77
2024/02/08 04:06:16;;;;;;;22.43;13.60;;;4.90;99.90;;;;;;812998;172;26388;-77
2024/02/08 04:09:05;;;;;;;18.60;12.17;;;5.00;99.90;;;;;;807005;173;27026;-76
2024/02/08 04:54:32;;;;;;;22.23;14.30;;;4.80;99.90;;;;;;812890;173;27008;-76
2024/02/08 04:56:59;;;;;;;21.17;12.87;;;4.90;99.90;;;;;;818136;172;26444;-76
2024/02/08 04:59:24;;;;;;;22.60;13.77;;;4.80;99.90;;;;;;811368;172;26464;-77
2024/02/08 05:01:53;;;;;;;22.33;12.73;;;4.80;99.90;;;;;;817036;172;26467;-77
2024/02/08 05:04:20;;;;;;;22.23;13.27;;;4.80;99.90;;;;;;813362;172;27019;-77
2024/02/08 05:06:45;;;;;;;25.27;13.40;;;4.80;99.90;;;;;;815704;173;26441;-76
2024/02/08 05:09:15;;;;;;;21.50;13.53;;;4.80;99.90;;;;;;809948;173;26416;-77
2024/02/08 05:11:39;;;;;;;24.03;14.97;;;4.90;99.90;;;;;;806710;176;26447;-77
2024/02/08 05:14:04;;;;;;;29.43;17.70;;;4.80;99.90;;;;;;814543;173;26414;-77
2024/02/08 05:16:36;;;;;;;23.13;15.27;;;4.80;99.90;;;;;;823802;173;26961;-74
2024/02/08 05:18:58;;;;;;;22.73;15.27;;;4.90;99.90;;;;;;814559;172;26433;-75
2024/02/08 05:21:28;;;;;;;27.10;15.60;;;4.90;99.90;;;;;;817707;172;26505;-76
2024/02/08 05:23:51;;;;;;;21.40;14.13;;;4.90;99.90;;;;;;808251;174;26506;-76
2024/02/08 05:26:19;;;;;;;24.67;15.10;;;4.90;99.90;;;;;;803083;177;26440;-76
2024/02/08 05:28:46;;;;;;;27.70;16.10;;;4.90;99.90;;;;;;782004;180;27028;-76
2024/02/08 05:31:13;;;;;;;27.93;16.73;;;4.90;99.90;;;;;;784501;180;26682;-76
2024/02/08 05:33:40;;;;;;;20.97;14.03;;;4.90;99.90;;;;;;778315;179;26480;-75
2024/02/08 05:36:07;;;;;;;27.47;15.93;;;4.90;99.90;;;;;;784720;179;26484;-72
2024/02/08 05:38:40;;;;;;;25.13;15.33;;;5.00;99.90;;;;;;785523;180;26488;-72
2024/02/08 05:41:05;;;;;;;27.63;15.60;;;5.00;99.90;;;;;;784814;180;26545;-71
2024/02/08 05:43:41;;;;;;;22.33;14.07;;;5.00;99.90;;;;;;783184;181;26675;-75
2024/02/08 05:46:01;;;;;;;23.83;15.17;;;5.10;99.90;;;;;;784590;179;27036;-76
2024/02/08 05:48:27;;;;;;;24.67;15.30;;;4.90;99.90;;;;;;785672;181;26468;-76
2024/02/08 05:50:56;;;;;;;28.47;15.83;;;5.00;99.90;;;;;;787086;179;26456;-76
2024/02/08 05:53:18;;;;;;;27.97;15.40;;;4.90;99.90;;;;;;799768;175;26983;-76
2024/02/08 05:55:48;;;;;;;32.13;17.33;;;4.90;99.90;;;;;;788538;178;26530;-75
2024/02/08 05:58:16;;;;;;;34.67;18.00;;;4.80;99.90;;;;;;788397;180;27063;-76
2024/02/08 06:00:45;;;;;;;31.73;17.17;;;4.90;99.90;;;;;;786732;179;26461;-76
2024/02/08 06:03:05;;;;;;;32.30;16.90;;;4.90;99.90;;;;;;783839;179;26442;-76
2024/02/08 06:05:31;;;;;;;32.03;17.57;;;4.90;99.90;;;;;;787552;179;26451;-76
2024/02/08 06:07:59;;;;;;;29.93;16.80;;;4.90;99.90;;;;;;784774;180;26640;-76
2024/02/08 06:10:42;;;;;;;25.30;15.43;;;5.00;99.90;;;;;;805037;175;27004;-76
2024/02/08 06:13:00;;;;;;;24.90;14.23;;;5.00;99.90;;;;;;812043;172;26569;-76
2024/02/08 06:15:35;;;;;;;20.57;13.57;;;5.00;99.90;;;;;;821146;173;26383;-76
2024/02/08 06:18:05;;;;;;;25.97;14.30;;;4.90;99.90;;;;;;816258;173;27025;-78
2024/02/08 06:20:35;;;;;;;23.10;13.57;;;4.90;99.90;;;;;;812397;172;26402;-76
2024/02/08 06:23:16;;;;;;;29.33;15.17;;;4.90;99.90;;;;;;817284;172;26413;-77
2024/02/08 06:25:28;;;;;;;25.70;14.97;;;4.90;99.90;;;;;;802158;178;26444;-76
2024/02/08 06:27:57;;;;;;;27.03;15.23;;;4.90;99.90;;;;;;802899;178;27130;-76
2024/02/08 06:30:25;;;;;;;25.87;14.97;;;4.90;99.90;;;;;;802343;176;26479;-76
2024/02/08 06:33:07;;;;;;;23.90;14.57;;;4.90;99.90;;;;;;814487;174;27078;-77
2024/02/08 06:35:20;;;;;;;26.07;15.33;;;4.90;99.90;;;;;;810625;174;26415;-77
2024/02/08 06:38:03;;;;;;;33.03;17.43;;;4.90;99.90;;;;;;802588;175;26415;-77
2024/02/08 07:41:53;;;;;;;25.70;12.23;;;5.10;99.90;;;;;;810391;177;26425;-77
2024/02/08 07:44:09;;;;;;;25.33;12.57;;;5.00;99.90;;;;;;809265;177;26531;-78
2024/02/08 07:46:40;;;;;;;28.87;14.37;;;5.00;99.90;;;;;;810459;177;26389;-78
2024/02/08 07:49:04;;;;;;;24.10;12.23;;;5.00;99.90;;;;;;812466;174;26450;-78
2024/02/08 07:51:32;;;;;;;25.80;12.07;;;5.10;99.90;;;;;;811743;177;26406;-79
2024/02/08 07:53:58;;;;;;;25.30;12.53;;;5.10;99.90;;;;;;813163;175;26421;-79
2024/02/08 07:59:03;;;;;;;20.83;11.70;;;5.10;99.90;;;;;;813753;176;26455;-79
2024/02/08 08:01:32;;;;;;;18.83;11.60;;;5.10;99.90;;;;;;811860;174;26402;-77
2024/02/08 08:03:56;;;;;;;21.07;9.97;;;5.20;99.90;;;;;;812319;176;26393;-79
2024/02/08 08:06:22;;;;;;;20.93;11.13;;;5.20;99.90;;;;;;811017;176;26416;-79
2024/02/08 08:08:57;;;;;;;19.93;10.83;;;5.20;99.90;;;;;;810390;176;26425;-78
2024/02/08 08:11:17;;;;;;;19.63;11.03;;;5.20;99.90;;;;;;812413;176;26450;-79
2024/02/08 08:18:51;;;;;;;20.53;12.50;;;5.20;99.90;;;;;;809086;177;26435;-79
2024/02/08 08:21:25;;;;;;;21.23;11.23;;;5.30;99.90;;;;;;807238;177;26382;-78
2024/02/08 08:23:59;;;;;;;20.17;11.03;;;5.30;99.90;;;;;;809127;177;26956;-79
2024/02/08 08:28:40;;;;;;;18.00;10.50;;;5.40;99.90;;;;;;812437;176;26411;-78
2024/02/08 08:38:44;;;;;;;18.33;10.43;;;5.50;99.90;;;;;;811074;177;26472;-79
2024/02/08 08:41:18;;;;;;;18.10;9.87;;;5.50;99.90;;;;;;811820;174;26427;-77
2024/02/08 08:43:52;;;;;;;17.03;9.87;;;5.60;99.90;;;;;;809732;176;26390;-78
2024/02/08 08:46:11;;;;;;;20.57;9.30;;;5.70;99.90;;;;;;810258;177;26426;-78
2024/02/08 08:48:38;;;;;;;18.10;10.43;;;5.70;99.90;;;;;;810174;177;26466;-78
2024/02/08 08:53:43;;;;;;;14.20;8.33;;;5.80;99.90;;;;;;809024;177;26445;-78
2024/02/08 08:56:04;;;;;;;13.17;8.03;;;5.70;99.90;;;;;;807948;177;26449;-80
2024/02/08 08:58:38;;;;;;;18.33;9.07;;;5.70;99.90;;;;;;808485;177;26418;-78
2024/02/08 09:01:11;;;;;;;17.23;9.40;;;5.70;99.90;;;;;;809388;177;26417;-79
2024/02/08 09:03:26;;;;;;;12.90;8.20;;;5.70;99.90;;;;;;807266;177;26410;-77
2024/02/08 09:05:57;;;;;;;12.70;8.17;;;5.70;99.90;;;;;;811223;177;26964;-78
2024/02/08 09:08:25;;;;;;;14.03;8.43;;;5.70;99.90;;;;;;811767;175;28882;-77
2024/02/08 09:10:51;;;;;;;13.87;8.80;;;5.80;99.90;;;;;;814586;175;26419;-78
2024/02/08 09:13:18;;;;;;;14.67;8.13;;;5.80;99.90;;;;;;812889;176;26395;-78
2024/02/08 09:15:55;;;;;;;13.83;8.07;;;5.80;99.90;;;;;;811254;176;26956;-77
2024/02/08 09:18:15;;;;;;;12.20;8.50;;;5.90;99.90;;;;;;808470;176;26965;-78
2024/02/08 09:20:42;;;;;;;15.97;9.30;;;5.90;99.90;;;;;;809518;175;26407;-78
2024/02/08 09:23:14;;;;;;;16.20;8.87;;;5.90;99.90;;;;;;808931;177;26567;-79
2024/02/08 09:25:45;;;;;;;11.17;7.87;;;6.00;99.90;;;;;;810578;176;26417;-78
2024/02/08 09:30:52;;;;;;;10.50;7.37;;;6.00;99.90;;;;;;809513;176;26390;-78
2024/02/08 09:33:29;;;;;;;12.03;8.03;;;6.00;99.90;;;;;;809437;176;26927;-78
2024/02/08 09:35:41;;;;;;;15.07;8.00;;;6.00;99.90;;;;;;807229;177;26423;-78
2024/02/08 09:38:07;;;;;;;13.87;8.23;;;5.90;99.90;;;;;;811056;177;26414;-78
2024/02/08 09:40:45;;;;;;;12.77;8.87;;;5.80;99.90;;;;;;811055;176;26543;-78
2024/02/08 09:43:16;;;;;;;13.57;8.53;;;5.80;99.90;;;;;;810297;176;26404;-79
2024/02/08 09:48:15;;;;;;;13.53;9.03;;;5.90;99.90;;;;;;811128;177;26416;-79
2024/02/08 09:50:59;;;;;;;12.83;8.20;;;6.00;99.90;;;;;;809695;177;26425;-80
2024/02/08 09:53:27;;;;;;;15.37;9.10;;;5.90;99.90;;;;;;808348;177;26407;-78
2024/02/08 09:55:57;;;;;;;15.90;9.47;;;6.00;99.90;;;;;;810492;177;26935;-78
2024/02/08 09:58:33;;;;;;;13.47;9.43;;;6.00;99.90;;;;;;814162;176;26405;-78
2024/02/08 10:01:01;;;;;;;15.30;9.63;;;5.90;99.90;;;;;;809926;177;26423;-78
2024/02/08 10:03:32;;;;;;;15.87;9.13;;;5.90;99.90;;;;;;809216;177;26390;-81
2024/02/08 10:06:12;;;;;;;14.80;9.93;;;5.90;99.90;;;;;;812155;177;26425;-80
2024/02/08 10:08:28;;;;;;;14.93;8.83;;;5.90;99.90;;;;;;810354;177;26507;-78
2024/02/08 10:11:11;;;;;;;15.67;9.33;;;5.90;99.90;;;;;;811911;173;26401;-79
2024/02/08 10:13:30;;;;;;;17.03;10.30;;;5.90;99.90;;;;;;808760;176;26398;-78
2024/02/08 10:15:56;;;;;;;15.10;9.67;;;5.90;99.90;;;;;;811610;177;26422;-78
2024/02/08 10:18:23;;;;;;;14.97;9.77;;;5.90;99.90;;;;;;810967;177;26394;-80
2024/02/08 10:20:48;;;;;;;15.57;10.03;;;5.90;99.90;;;;;;813623;174;26404;-80
2024/02/08 10:28:22;;;;;;;12.00;9.07;;;6.00;99.90;;;;;;812148;175;26959;-80
2024/02/08 10:30:57;;;;;;;16.67;10.60;;;6.00;99.90;;;;;;811757;177;26406;-79
2024/02/08 10:33:24;;;;;;;18.43;11.30;;;6.00;99.90;;;;;;811845;175;26417;-78
2024/02/08 10:35:52;;;;;;;16.90;10.60;;;5.90;99.90;;;;;;814064;176;26405;-78
2024/02/08 10:38:18;;;;;;;18.63;11.30;;;5.90;99.90;;;;;;809898;176;26405;-80
2024/02/08 10:40:47;;;;;;;17.57;10.77;;;6.00;99.90;;;;;;810733;177;26470;-80
2024/02/08 10:43:17;;;;;;;18.83;11.67;;;5.90;99.90;;;;;;809985;176;26429;-79
2024/02/08 10:45:52;;;;;;;18.53;11.30;;;6.00;99.90;;;;;;812144;177;26413;-75
2024/02/08 10:48:16;;;;;;;22.97;12.33;;;6.00;99.90;;;;;;810541;177;26410;-78
2024/02/08 10:50:43;;;;;;;22.17;11.37;;;6.00;99.90;;;;;;808688;177;26417;-79
2024/02/08 10:53:16;;;;;;;20.40;10.73;;;6.00;99.90;;;;;;810575;177;26427;-81
2024/02/08 10:55:37;;;;;;;18.70;10.93;;;5.90;99.90;;;;;;813146;173;26404;-79
2024/02/08 11:03:33;;;;;;;20.50;11.23;;;6.00;99.90;;;;;;809696;177;27043;-78
2024/02/08 11:06:03;;;;;;;21.23;12.00;;;6.10;99.90;;;;;;811889;177;26396;-78
2024/02/08 11:08:33;;;;;;;19.00;10.90;;;6.00;99.90;;;;;;809245;177;26409;-80
2024/02/08 11:11:03;;;;;;;18.33;10.73;;;6.00;99.90;;;;;;809799;177;26393;-80
2024/02/08 11:13:29;;;;;;;16.67;10.30;;;6.10;99.90;;;;;;809683;177;26410;-79
2024/02/08 11:15:53;;;;;;;18.73;11.13;;;6.10;99.90;;;;;;811338;177;26424;-77
2024/02/08 11:18:45;;;;;;;16.93;10.97;;;6.20;99.90;;;;;;808634;172;26430;-81
2024/02/08 11:21:12;;;;;;;15.70;9.23;;;6.20;99.90;;;;;;809610;177;26396;-79
2024/02/08 11:23:45;;;;;;;13.17;8.90;;;6.10;99.90;;;;;;806900;177;26421;-79
2024/02/08 11:26:06;;;;;;;15.67;9.20;;;6.20;99.90;;;;;;809216;176;26959;-79
2024/02/08 11:28:44;;;;;;;16.50;9.00;;;6.20;99.90;;;;;;809356;177;26402;-79
2024/02/08 11:31:03;;;;;;;16.37;10.70;;;6.20;99.90;;;;;;808287;174;26393;-81
2024/02/08 11:33:32;;;;;;;18.90;10.97;;;6.30;99.90;;;;;;813475;173;26457;-80
2024/02/08 11:36:11;;;;;;;16.33;10.47;;;6.30;99.90;;;;;;812566;176;26563;-80
2024/02/08 11:38:30;;;;;;;14.63;9.20;;;6.50;99.90;;;;;;813355;175;27022;-80
2024/02/08 11:40:57;;;;;;;14.17;9.47;;;6.40;99.90;;;;;;811185;176;26958;-79
2024/02/08 11:43:24;;;;;;;15.97;9.43;;;6.40;99.90;;;;;;810294;176;26401;-78
2024/02/08 11:45:52;;;;;;;16.43;9.60;;;6.50;99.90;;;;;;810276;177;26401;-79
2024/02/08 11:48:23;;;;;;;17.67;10.67;;;6.50;99.90;;;;;;811488;176;26421;-79
2024/02/08 11:50:55;;;;;;;14.70;10.23;;;6.60;99.90;;;;;;811438;176;26384;-81
2024/02/08 11:53:17;;;;;;;14.07;9.13;;;6.70;99.90;;;;;;809000;177;26410;-79
2024/02/08 11:55:45;;;;;;;13.57;9.13;;;6.70;99.90;;;;;;809475;177;26979;-81
2024/02/08 11:58:11;;;;;;;11.47;8.20;;;6.80;99.90;;;;;;801197;177;26473;-80
2024/02/08 12:00:45;;;;;;;13.47;9.40;;;6.80;99.90;;;;;;813319;176;26416;-81
2024/02/08 12:03:06;;;;;;;12.43;9.50;;;6.90;99.90;;;;;;812449;176;26389;-79
2024/02/08 12:05:33;;;;;;;12.13;8.50;;;6.90;99.90;;;;;;811900;177;26414;-80
2024/02/08 12:08:10;;;;;;;12.70;9.10;;;6.90;99.90;;;;;;813188;176;26415;-82
2024/02/08 12:10:36;;;;;;;12.37;8.37;;;6.90;99.90;;;;;;811252;174;26390;-80
2024/02/08 12:13:04;;;;;;;12.97;8.60;;;6.90;99.90;;;;;;812435;176;26397;-83
2024/02/08 12:15:29;;;;;;;13.03;7.70;;;6.90;99.90;;;;;;811084;176;26390;-78
2024/02/08 12:18:05;;;;;;;9.80;7.37;;;6.90;99.90;;;;;;809106;177;26419;-80
2024/02/08 12:20:30;;;;;;;12.70;8.60;;;6.90;99.90;;;;;;810570;177;26402;-80
2024/02/08 12:22:58;;;;;;;9.63;6.67;;;7.00;99.90;;;;;;809044;177;26939;-79
2024/02/08 12:25:27;;;;;;;10.73;7.50;;;6.90;99.90;;;;;;811559;177;26495;-79
2024/02/08 12:27:52;;;;;;;14.07;8.87;;;7.10;99.90;;;;;;811318;177;26405;-80
2024/02/08 12:30:21;;;;;;;11.30;9.17;;;7.20;99.90;;;;;;812704;175;26425;-78
2024/02/08 12:32:46;;;;;;;9.33;6.60;;;7.20;99.90;;;;;;810942;177;26385;-80
2024/02/08 12:35:13;;;;;;;10.40;8.00;;;7.10;99.90;;;;;;810408;177;26436;-81
2024/02/08 12:37:41;;;;;;;10.50;8.30;;;7.00;99.90;;;;;;810171;177;26470;-80
2024/02/08 12:40:12;;;;;;;11.07;8.67;;;7.10;99.90;;;;;;796734;173;26491;-78
2024/02/08 12:42:39;;;;;;;10.90;8.03;;;7.10;99.90;;;;;;778272;181;27028;-79
2024/02/08 12:45:08;;;;;;;11.10;7.87;;;7.20;99.90;;;;;;777582;181;27115;-79
2024/02/08 12:47:30;;;;;;;10.93;7.67;;;7.30;99.90;;;;;;776484;182;26506;-78
2024/02/08 12:49:57;;;;;;;10.93;7.40;;;7.30;99.90;;;;;;774040;182;26502;-78
2024/02/08 12:52:24;;;;;;;9.97;8.50;;;7.40;99.90;;;;;;767885;185;26793;-78
2024/02/08 12:54:53;;;;;;;8.13;6.77;;;7.50;99.90;;;;;;769836;186;26489;-78
2024/02/08 12:57:22;;;;;;;12.83;8.40;;;7.50;99.90;;;;;;765723;184;27027;-78
2024/02/08 12:59:47;;;;;;;10.10;8.40;;;7.60;99.90;;;;;;769929;185;26503;-78
2024/02/08 13:02:17;;;;;;;7.13;6.07;;;7.70;99.90;;;;;;772385;185;26507;-78
2024/02/08 13:04:44;;;;;;;10.57;8.50;;;7.60;99.90;;;;;;768306;185;26478;-79
2024/02/08 13:07:15;;;;;;;10.93;8.43;;;7.60;99.90;;;;;;771326;186;26476;-79
2024/02/08 13:09:46;;;;;;;14.87;7.67;;;7.60;99.90;;;;;;772424;184;26501;-79
2024/02/08 13:12:15;;;;;;;9.80;7.83;;;7.60;99.90;;;;;;773822;183;26492;-79
2024/02/08 13:14:48;;;;;;;12.33;8.83;;;7.60;99.90;;;;;;765412;184;27046;-79
2024/02/08 13:17:10;;;;;;;11.37;8.03;;;7.60;99.90;;;;;;777472;185;26837;-80
2024/02/08 13:19:39;;;;;;;12.20;8.10;;;7.70;99.90;;;;;;769809;185;26551;-79
2024/02/08 13:22:08;;;;;;;12.20;9.17;;;7.70;99.90;;;;;;780421;184;26495;-79
2024/02/08 13:24:36;;;;;;;12.27;9.97;;;7.70;99.90;;;;;;778308;184;26512;-78
2024/02/08 13:27:04;;;;;;;12.03;8.47;;;7.70;99.90;;;;;;769212;184;26487;-78
2024/02/08 13:29:30;;;;;;;13.20;9.43;;;7.70;99.90;;;;;;765720;185;27045;-77
2024/02/08 13:31:57;;;;;;;11.23;9.33;;;7.80;99.90;;;;;;774664;185;26502;-78
2024/02/08 13:34:23;;;;;;;13.60;10.00;;;7.80;99.90;;;;;;769480;185;26496;-78
2024/02/08 13:36:50;;;;;;;12.80;9.27;;;7.90;99.90;;;;;;771280;184;26489;-78
2024/02/08 13:39:17;;;;;;;15.37;9.50;;;8.00;99.90;;;;;;774968;184;26488;-79
2024/02/08 13:41:46;;;;;;;13.67;9.40;;;8.00;99.90;;;;;;772254;185;26503;-79
2024/02/08 13:44:10;;;;;;;11.93;9.07;;;8.10;99.90;;;;;;766661;184;26501;-79
2024/02/08 13:46:36;;;;;;;11.97;10.57;;;8.10;99.90;;;;;;770500;184;27028;-77
2024/02/08 13:49:05;;;;;;;12.60;10.00;;;8.10;99.90;;;;;;772137;184;26493;-77
2024/02/08 13:51:30;;;;;;;13.40;9.30;;;8.10;99.90;;;;;;766602;184;26502;-79
2024/02/08 13:53:56;;;;;;;11.33;9.73;;;8.10;99.90;;;;;;769468;184;26561;-78
2024/02/08 13:56:23;;;;;;;13.83;11.03;;;8.20;99.90;;;;;;777561;182;26483;-79
2024/02/08 13:58:50;;;;;;;12.83;10.37;;;8.20;99.90;;;;;;770321;184;27019;-79
2024/02/08 14:01:25;;;;;;;14.07;10.27;;;8.20;99.90;;;;;;771256;184;26538;-79
2024/02/08 14:03:45;;;;;;;16.07;12.23;;;8.20;99.90;;;;;;776523;184;26501;-78
2024/02/08 14:06:10;;;;;;;20.73;15.73;;;8.20;99.90;;;;;;766388;185;27039;-79
2024/02/08 14:08:41;;;;;;;15.00;10.50;;;8.30;99.90;;;;;;768827;185;26532;-78
2024/02/08 14:11:09;;;;;;;16.43;10.93;;;8.30;99.90;;;;;;765653;184;27081;-77
2024/02/08 14:13:29;;;;;;;12.73;10.03;;;8.30;99.90;;;;;;766368;184;26497;-78
2024/02/08 14:16:00;;;;;;;13.53;10.33;;;8.30;99.90;;;;;;766784;186;26519;-78
2024/02/08 14:18:23;;;;;;;12.67;10.03;;;8.30;99.90;;;;;;768001;183;26488;-79
2024/02/08 14:20:53;;;;;;;16.40;12.43;;;8.30;99.90;;;;;;761269;187;26518;-80
2024/02/08 14:23:37;;;;;;;12.33;10.07;;;8.30;99.90;;;;;;764568;185;26504;-79
2024/02/08 14:28:46;;;;;;;12.13;9.30;;;8.30;99.90;;;;;;767543;184;26494;-79
2024/02/08 14:31:13;;;;;;;14.80;10.70;;;8.40;99.90;;;;;;766832;185;26488;-79
2024/02/08 14:33:41;;;;;;;15.53;10.73;;;8.30;99.90;;;;;;763699;185;26492;-79
2024/02/08 14:36:09;;;;;;;13.57;10.97;;;8.40;99.90;;;;;;774866;185;26480;-79
2024/02/08 14:38:35;;;;;;;22.10;12.00;;;8.30;99.90;;;;;;770815;185;26475;-79
2024/02/08 14:41:02;;;;;;;16.33;11.40;;;8.40;99.90;;;;;;773362;181;26487;-79
2024/02/08 14:43:31;;;;;;;14.97;11.80;;;8.40;99.90;;;;;;772073;183;26510;-79
2024/02/08 14:45:55;;;;;;;16.30;11.00;;;8.40;99.90;;;;;;772605;184;27145;-79
2024/02/08 14:48:27;;;;;;;13.53;11.30;;;8.40;99.90;;;;;;768375;185;26571;-79
2024/02/08 14:50:51;;;;;;;16.67;11.93;;;8.40;99.90;;;;;;771183;184;26507;-79
2024/02/08 14:53:17;;;;;;;14.40;11.53;;;8.40;99.90;;;;;;770005;184;26491;-78
2024/02/08 14:55:46;;;;;;;17.87;13.50;;;8.50;99.90;;;;;;768657;185;26479;-79
2024/02/08 15:03:27;;;;;;;22.23;13.93;;;8.50;99.90;;;;;;770379;185;26494;-80
2024/02/08 15:05:47;;;;;;;24.93;15.33;;;8.60;99.90;;;;;;769812;184;26562;-78
2024/02/08 15:08:54;;;;;;;21.13;14.23;;;8.60;99.90;;;;;;769432;183;26621;-78
2024/02/08 15:11:03;;;;;;;17.33;12.90;;;8.50;99.90;;;;;;786554;181;27062;-79
2024/02/08 15:13:38;;;;;;;16.77;11.50;;;8.50;99.90;;;;;;771979;182;26535;-79
2024/02/08 15:15:57;;;;;;;18.37;13.70;;;8.60;99.90;;;;;;766339;184;26640;-78